Time;durP1;ratioP1;P1;durP2;ratioP2;P2;SDS_P1;SDS_P2;PMS_P1;PMS_P2;Temp;Humidity;BMP_temperature;BMP_pressure;BME280_temperature;BME280_humidity;BME280_pressure;Samples;Min_cycle;Max_cycle;Signal;HPM_P1;HPM_P2
2022/06/23 00:00:03;;;;;;;;;7.20;7.00;;;;;;;;4962146;28;8779;-75
2022/06/23 00:02:30;;;;;;;;;8.40;7.00;;;;;;;;4961367;28;8883;-73
2022/06/23 00:05:01;;;;;;;;;9.60;8.00;;;;;;;;4978498;28;9027;-67
2022/06/23 00:07:29;;;;;;;;;10.40;8.00;;;;;;;;4977900;28;8927;-75
2022/06/23 00:09:59;;;;;;;;;13.40;11.00;;;;;;;;4979936;28;8743;-64
2022/06/23 00:12:28;;;;;;;;;5.40;4.40;;;;;;;;4978888;28;8803;-75
2022/06/23 00:15:07;;;;;;;;;9.60;8.00;;;;;;;;4961730;28;8771;-72
2022/06/23 00:17:44;;;;;;;;;9.60;8.40;;;;;;;;4978605;28;9174;-75
2022/06/23 00:20:12;;;;;;;;;11.00;8.00;;;;;;;;4979055;28;8771;-69
2022/06/23 00:22:39;;;;;;;;;10.60;9.20;;;;;;;;4961892;28;8784;-75
2022/06/23 00:25:06;;;;;;;;;17.80;14.60;;;;;;;;4962464;28;8763;-57
2022/06/23 00:27:33;;;;;;;;;17.40;14.00;;;;;;;;4978460;28;9537;-76
2022/06/23 00:30:01;;;;;;;;;19.00;15.00;;;;;;;;4961775;28;8775;-69
2022/06/23 00:32:29;;;;;;;;;12.20;12.20;;;;;;;;4978023;28;8759;-72
2022/06/23 00:35:04;;;;;;;;;14.40;14.00;;;;;;;;4977059;28;8779;-75
2022/06/23 00:37:31;;;;;;;;;15.60;13.00;;;;;;;;4976708;28;11946;-61
2022/06/23 00:39:59;;;;;;;;;14.00;11.00;;;;;;;;4979382;28;8763;-75
2022/06/23 00:42:30;;;;;;;;;14.00;10.80;;;;;;;;4956654;28;8905;-74
2022/06/23 00:45:12;;;;;;;;;15.00;11.80;;;;;;;;4939788;28;9541;-75
2022/06/23 00:47:41;;;;;;;;;16.00;14.40;;;;;;;;4920489;28;8827;-75
2022/06/23 00:50:37;;;;;;;;;14.60;10.40;;;;;;;;4920223;28;8958;-75
2022/06/23 00:53:14;;;;;;;;;13.40;10.60;;;;;;;;4884133;29;8942;-75
2022/06/23 00:55:54;;;;;;;;;12.60;11.40;;;;;;;;4918411;28;8814;-68
2022/06/23 00:58:30;;;;;;;;;16.60;14.20;;;;;;;;4919667;29;8807;-62
2022/06/23 01:00:59;;;;;;;;;12.40;10.00;;;;;;;;4926773;29;8864;-69
2022/06/23 01:03:28;;;;;;;;;12.00;10.80;;;;;;;;4938078;29;8797;-73
2022/06/23 01:06:06;;;;;;;;;11.80;9.40;;;;;;;;4938913;28;9466;-64
2022/06/23 01:08:36;;;;;;;;;16.60;12.20;;;;;;;;4939131;28;8758;-70
2022/06/23 01:11:05;;;;;;;;;11.40;10.80;;;;;;;;4939226;28;8813;-67
2022/06/23 01:13:32;;;;;;;;;9.80;7.80;;;;;;;;4938870;28;8778;-67
2022/06/23 01:16:05;;;;;;;;;9.20;9.20;;;;;;;;4939844;28;8786;-75
2022/06/23 01:18:42;;;;;;;;;10.00;8.20;;;;;;;;4938692;28;9486;-67
2022/06/23 01:21:09;;;;;;;;;12.20;9.60;;;;;;;;4939137;28;8794;-69
2022/06/23 01:23:38;;;;;;;;;13.20;7.80;;;;;;;;4939215;28;8808;-74
2022/06/23 01:26:23;;;;;;;;;9.60;8.60;;;;;;;;4937793;28;8777;-61
2022/06/23 01:28:50;;;;;;;;;8.20;7.20;;;;;;;;4939459;28;8899;-74
2022/06/23 01:31:19;;;;;;;;;9.00;9.00;;;;;;;;4939491;28;8799;-72
2022/06/23 01:33:52;;;;;;;;;10.20;8.00;;;;;;;;4938005;28;8805;-71
2022/06/23 01:36:18;;;;;;;;;11.00;9.60;;;;;;;;4938442;28;8820;-75
2022/06/23 01:38:45;;;;;;;;;13.60;10.00;;;;;;;;4938686;28;8773;-72
2022/06/23 01:41:13;;;;;;;;;7.40;7.40;;;;;;;;4952834;28;9443;-73
2022/06/23 01:44:00;;;;;;;;;9.00;9.00;;;;;;;;4959265;28;8825;-75
2022/06/23 01:46:32;;;;;;;;;6.80;6.80;;;;;;;;4930406;28;8834;-61
2022/06/23 01:49:01;;;;;;;;;7.40;7.00;;;;;;;;4962705;28;8806;-72
2022/06/23 01:51:28;;;;;;;;;5.00;5.00;;;;;;;;4944528;28;8797;-75
2022/06/23 01:53:55;;;;;;;;;9.80;7.60;;;;;;;;4962121;28;8754;-71
2022/06/23 01:56:40;;;;;;;;;8.00;7.00;;;;;;;;4961870;28;8877;-60
2022/06/23 01:59:29;;;;;;;;;6.80;6.80;;;;;;;;4944624;28;8769;-74
2022/06/23 02:02:11;;;;;;;;;5.40;5.40;;;;;;;;4975875;28;8751;-65
2022/06/23 02:05:04;;;;;;;;;11.60;7.80;;;;;;;;4981057;28;8774;-75
2022/06/23 02:07:30;;;;;;;;;8.20;6.60;;;;;;;;4977879;28;8804;-71
2022/06/23 02:10:01;;;;;;;;;8.00;6.80;;;;;;;;4982010;28;8787;-67
2022/06/23 02:12:29;;;;;;;;;9.00;6.20;;;;;;;;4981120;28;8779;-71
2022/06/23 02:14:59;;;;;;;;;5.20;5.00;;;;;;;;4979795;28;8771;-67
2022/06/23 02:17:32;;;;;;;;;8.00;8.00;;;;;;;;4959470;28;8804;-61
2022/06/23 02:20:14;;;;;;;;;9.00;7.20;;;;;;;;4975558;28;8885;-64
2022/06/23 02:22:41;;;;;;;;;6.00;6.00;;;;;;;;4976095;28;8769;-73
2022/06/23 02:25:26;;;;;;;;;6.20;4.00;;;;;;;;4976887;28;8813;-65
2022/06/23 02:27:59;;;;;;;;;3.80;3.80;;;;;;;;4961903;28;8770;-65
2022/06/23 02:30:31;;;;;;;;;6.20;5.80;;;;;;;;4977678;28;8757;-75
2022/06/23 02:33:01;;;;;;;;;7.40;6.00;;;;;;;;4980585;28;8791;-74
2022/06/23 02:35:44;;;;;;;;;5.40;5.00;;;;;;;;4962512;28;8838;-68
2022/06/23 02:38:13;;;;;;;;;7.00;4.40;;;;;;;;4980568;28;8830;-67
2022/06/23 02:40:39;;;;;;;;;7.40;7.00;;;;;;;;4979673;28;8804;-74
2022/06/23 02:43:06;;;;;;;;;5.60;5.40;;;;;;;;4963377;28;8783;-70
2022/06/23 02:45:51;;;;;;;;;3.20;2.00;;;;;;;;4979715;28;9434;-73
2022/06/23 02:48:28;;;;;;;;;3.00;3.00;;;;;;;;4980191;28;8916;-69
2022/06/23 02:51:15;;;;;;;;;6.40;4.40;;;;;;;;4963374;28;8772;-73
2022/06/23 02:54:00;;;;;;;;;5.00;4.20;;;;;;;;4963366;28;8918;-68
2022/06/23 02:56:47;;;;;;;;;8.40;6.40;;;;;;;;4980359;28;8775;-72
2022/06/23 02:59:40;;;;;;;;;5.80;5.00;;;;;;;;4940835;28;8768;-70
2022/06/23 03:02:10;;;;;;;;;4.00;4.00;;;;;;;;4938570;28;9539;-68
2022/06/23 03:04:41;;;;;;;;;6.20;5.60;;;;;;;;4960784;28;8750;-72
2022/06/23 03:07:09;;;;;;;;;5.00;5.00;;;;;;;;4944368;28;8829;-66
2022/06/23 03:09:37;;;;;;;;;8.20;8.00;;;;;;;;4943836;28;8769;-73
2022/06/23 03:12:13;;;;;;;;;6.40;6.40;;;;;;;;4961047;28;8793;-67
2022/06/23 03:14:51;;;;;;;;;4.80;3.00;;;;;;;;4943870;28;8778;-72
2022/06/23 03:17:22;;;;;;;;;5.40;5.20;;;;;;;;4960491;28;8810;-73
2022/06/23 03:20:08;;;;;;;;;6.60;6.60;;;;;;;;4978823;28;9416;-62
2022/06/23 03:22:37;;;;;;;;;9.40;6.80;;;;;;;;4979707;28;8748;-61
2022/06/23 03:25:11;;;;;;;;;7.80;4.80;;;;;;;;4963183;28;8806;-73
2022/06/23 03:27:47;;;;;;;;;4.60;4.60;;;;;;;;4979941;28;8799;-64
2022/06/23 03:30:21;;;;;;;;;5.40;5.40;;;;;;;;4978232;28;8784;-67
2022/06/23 03:32:51;;;;;;;;;5.80;5.00;;;;;;;;4962474;28;8764;-75
2022/06/23 03:35:26;;;;;;;;;4.40;4.00;;;;;;;;4979613;28;8792;-67
2022/06/23 03:38:07;;;;;;;;;3.80;3.80;;;;;;;;4962336;28;8752;-60
2022/06/23 03:43:34;;;;;;;;;6.20;5.00;;;;;;;;4964018;28;8756;-72
2022/06/23 03:46:15;;;;;;;;;8.60;5.40;;;;;;;;4979993;28;8799;-72
2022/06/23 03:49:02;;;;;;;;;9.40;6.00;;;;;;;;4961775;28;8865;-68
2022/06/23 03:51:30;;;;;;;;;10.60;6.00;;;;;;;;4961654;28;8760;-72
2022/06/23 03:54:02;;;;;;;;;5.40;5.00;;;;;;;;4979810;28;8944;-69
2022/06/23 03:56:33;;;;;;;;;4.20;4.20;;;;;;;;4979112;28;9402;-71
2022/06/23 03:59:03;;;;;;;;;8.00;5.40;;;;;;;;4978280;28;8896;-72
2022/06/23 04:01:44;;;;;;;;;3.80;3.80;;;;;;;;4978630;28;8884;-67
2022/06/23 04:04:22;;;;;;;;;5.40;4.20;;;;;;;;4979699;28;8778;-75
2022/06/23 04:06:49;;;;;;;;;4.20;2.20;;;;;;;;4978955;28;8804;-67
2022/06/23 04:09:22;;;;;;;;;4.00;4.00;;;;;;;;4978451;28;8789;-71
2022/06/23 04:11:49;;;;;;;;;4.00;3.20;;;;;;;;4961437;28;8760;-74
2022/06/23 04:14:15;;;;;;;;;5.80;4.80;;;;;;;;4961225;28;8764;-66
2022/06/23 04:16:42;;;;;;;;;9.40;7.00;;;;;;;;4961630;28;8875;-70
2022/06/23 04:19:16;;;;;;;;;5.80;5.20;;;;;;;;4979498;28;8842;-76
2022/06/23 04:21:44;;;;;;;;;5.20;3.20;;;;;;;;4977283;28;8787;-68
2022/06/23 04:24:14;;;;;;;;;0.40;0.40;;;;;;;;4977574;28;8850;-72
2022/06/23 04:26:41;;;;;;;;;3.80;3.00;;;;;;;;4978465;28;9429;-68
2022/06/23 04:29:10;;;;;;;;;4.20;4.20;;;;;;;;4960871;28;8756;-65
2022/06/23 04:31:41;;;;;;;;;2.00;2.00;;;;;;;;4977070;28;8814;-73
2022/06/23 04:34:13;;;;;;;;;3.20;1.60;;;;;;;;4961989;28;8791;-67
2022/06/23 04:36:43;;;;;;;;;2.00;2.00;;;;;;;;4960753;28;8783;-64
2022/06/23 04:39:28;;;;;;;;;2.00;1.00;;;;;;;;4978564;28;8783;-73
2022/06/23 04:42:14;;;;;;;;;1.20;1.20;;;;;;;;4977977;28;8862;-68
2022/06/23 04:44:45;;;;;;;;;2.40;1.80;;;;;;;;4960975;28;8872;-69
2022/06/23 04:47:17;;;;;;;;;1.60;1.20;;;;;;;;4961134;28;8775;-73
2022/06/23 04:49:45;;;;;;;;;1.00;1.00;;;;;;;;4960727;28;8796;-71
2022/06/23 04:52:24;;;;;;;;;1.80;1.20;;;;;;;;4977761;28;8764;-74
2022/06/23 04:54:54;;;;;;;;;4.00;1.20;;;;;;;;4978585;28;8849;-63
2022/06/23 04:57:31;;;;;;;;;4.00;2.20;;;;;;;;4977918;28;8771;-73
2022/06/23 04:59:59;;;;;;;;;6.00;6.00;;;;;;;;4978184;28;8806;-72
2022/06/23 05:02:43;;;;;;;;;8.20;7.80;;;;;;;;4976326;28;8772;-69
2022/06/23 05:05:28;;;;;;;;;10.00;8.20;;;;;;;;4960656;28;8886;-72
2022/06/23 05:08:13;;;;;;;;;6.80;5.60;;;;;;;;4977372;28;8794;-71
2022/06/23 05:10:48;;;;;;;;;5.40;3.40;;;;;;;;4960450;28;8881;-70
2022/06/23 05:13:16;;;;;;;;;5.40;3.00;;;;;;;;4978159;28;8744;-71
2022/06/23 05:15:43;;;;;;;;;2.40;2.40;;;;;;;;4977369;28;9446;-76
2022/06/23 05:18:11;;;;;;;;;1.00;1.00;;;;;;;;4976611;28;8794;-74
2022/06/23 05:20:41;;;;;;;;;2.40;1.60;;;;;;;;4978616;28;8783;-68
2022/06/23 05:23:13;;;;;;;;;3.00;3.00;;;;;;;;4981508;28;8803;-74
2022/06/23 05:25:46;;;;;;;;;6.60;2.40;;;;;;;;4980644;28;8803;-70
2022/06/23 05:28:16;;;;;;;;;2.80;2.80;;;;;;;;4982333;28;8771;-59
2022/06/23 05:30:48;;;;;;;;;2.20;1.60;;;;;;;;4960630;28;9026;-73
2022/06/23 05:33:25;;;;;;;;;4.20;3.00;;;;;;;;4960761;28;8789;-75
2022/06/23 05:35:55;;;;;;;;;1.60;1.60;;;;;;;;4962025;28;8820;-72
2022/06/23 05:38:24;;;;;;;;;6.60;2.80;;;;;;;;4976738;28;8781;-70
2022/06/23 05:40:52;;;;;;;;;2.80;2.60;;;;;;;;4976732;28;8762;-75
2022/06/23 05:43:21;;;;;;;;;2.00;2.00;;;;;;;;4961733;28;8849;-72
2022/06/23 05:45:56;;;;;;;;;3.00;3.00;;;;;;;;4979987;28;9571;-67
2022/06/23 05:48:34;;;;;;;;;1.20;1.20;;;;;;;;4981108;28;8802;-74
2022/06/23 05:51:03;;;;;;;;;2.00;2.00;;;;;;;;4981166;28;8791;-75
2022/06/23 05:53:31;;;;;;;;;3.60;3.00;;;;;;;;4980281;28;8839;-72
2022/06/23 05:56:00;;;;;;;;;4.00;4.00;;;;;;;;4981114;28;8870;-72
2022/06/23 05:58:32;;;;;;;;;3.20;1.60;;;;;;;;4980365;28;8951;-75
2022/06/23 06:01:04;;;;;;;;;2.20;1.00;;;;;;;;4981339;28;8771;-76
2022/06/23 06:03:35;;;;;;;;;4.60;2.00;;;;;;;;4963945;28;8763;-71
2022/06/23 06:06:02;;;;;;;;;1.20;1.20;;;;;;;;4963385;28;8821;-72
2022/06/23 06:09:35;;;;;;;;;2.00;2.00;;;;;;;;4980971;28;8756;-74
2022/06/23 06:11:23;;;;;;;;;2.00;2.00;;;;;;;;4966273;28;8870;-70
2022/06/23 06:13:49;;;;;;;;;2.60;1.40;;;;;;;;4980768;28;8799;-71
2022/06/23 06:16:16;;;;;;;;;0.60;0.60;;;;;;;;4959121;28;8846;-76
2022/06/23 06:18:43;;;;;;;;;3.60;2.00;;;;;;;;4963267;28;8775;-74
2022/06/23 06:21:11;;;;;;;;;4.20;2.20;;;;;;;;4979576;28;8768;-71
2022/06/23 06:23:52;;;;;;;;;2.80;2.80;;;;;;;;4979416;28;8791;-73
2022/06/23 06:26:19;;;;;;;;;2.40;0.40;;;;;;;;4980423;28;8815;-73
2022/06/23 06:28:46;;;;;;;;;3.40;2.40;;;;;;;;4979617;28;9463;-74
2022/06/23 06:31:12;;;;;;;;;3.80;2.00;;;;;;;;4981219;28;8783;-70
2022/06/23 06:33:45;;;;;;;;;1.00;1.00;;;;;;;;4980755;28;8790;-72
2022/06/23 06:36:26;;;;;;;;;4.00;2.00;;;;;;;;4980704;28;9448;-72
2022/06/23 06:38:54;;;;;;;;;2.80;1.80;;;;;;;;4980807;28;8954;-69
2022/06/23 06:41:21;;;;;;;;;3.80;2.00;;;;;;;;4956333;28;8830;-71
2022/06/23 06:43:48;;;;;;;;;1.40;0.80;;;;;;;;4942326;29;9398;-70
2022/06/23 06:46:14;;;;;;;;;2.00;2.00;;;;;;;;4942398;28;8802;-74
2022/06/23 06:48:43;;;;;;;;;2.60;1.80;;;;;;;;4941542;29;8809;-65
2022/06/23 06:51:14;;;;;;;;;3.80;2.00;;;;;;;;4941699;28;8809;-75
2022/06/23 06:53:43;;;;;;;;;3.20;2.60;;;;;;;;4956567;29;8946;-74
2022/06/23 06:56:16;;;;;;;;;2.00;1.00;;;;;;;;4941318;28;9502;-71
2022/06/23 06:58:44;;;;;;;;;2.80;2.80;;;;;;;;4941772;29;8762;-75
2022/06/23 07:01:21;;;;;;;;;3.00;2.00;;;;;;;;4937178;28;8864;-77
2022/06/23 07:03:48;;;;;;;;;0.40;0.40;;;;;;;;4922433;29;8917;-76
2022/06/23 07:06:23;;;;;;;;;1.40;1.40;;;;;;;;4922918;29;8940;-71
2022/06/23 07:08:55;;;;;;;;;0.20;0.20;;;;;;;;4936994;29;8784;-64
2022/06/23 07:11:24;;;;;;;;;1.00;1.00;;;;;;;;4937341;28;8803;-74
2022/06/23 07:13:56;;;;;;;;;0.00;0.00;;;;;;;;4922651;29;8784;-71
2022/06/23 07:16:23;;;;;;;;;0.80;0.60;;;;;;;;4932144;28;8797;-70
2022/06/23 07:18:56;;;;;;;;;0.20;0.00;;;;;;;;4941593;29;8884;-76
2022/06/23 07:21:29;;;;;;;;;3.60;1.00;;;;;;;;4955801;28;8793;-71
2022/06/23 07:23:56;;;;;;;;;1.00;1.00;;;;;;;;4956227;29;8872;-67
2022/06/23 07:26:29;;;;;;;;;3.60;1.80;;;;;;;;4955825;28;8919;-74
2022/06/23 07:28:57;;;;;;;;;3.00;1.80;;;;;;;;4941431;29;8769;-70
2022/06/23 07:31:32;;;;;;;;;1.00;1.00;;;;;;;;4955724;28;8944;-69
2022/06/23 07:34:12;;;;;;;;;3.00;1.60;;;;;;;;4956310;29;8868;-75
2022/06/23 07:36:41;;;;;;;;;2.80;2.00;;;;;;;;4941078;28;8829;-67
2022/06/23 07:39:24;;;;;;;;;3.00;1.80;;;;;;;;4955786;28;8833;-65
2022/06/23 07:42:13;;;;;;;;;1.80;1.80;;;;;;;;4960296;28;8791;-51
2022/06/23 07:44:40;;;;;;;;;3.00;1.60;;;;;;;;4942406;28;9401;-60
2022/06/23 07:47:07;;;;;;;;;3.60;2.60;;;;;;;;4978878;28;8776;-75
2022/06/23 07:49:33;;;;;;;;;1.40;1.40;;;;;;;;4977362;28;9437;-67
2022/06/23 07:52:01;;;;;;;;;2.00;0.80;;;;;;;;4962811;28;8768;-68
2022/06/23 07:54:27;;;;;;;;;3.20;3.00;;;;;;;;4979130;28;8799;-68
2022/06/23 07:56:54;;;;;;;;;3.20;2.00;;;;;;;;4979166;28;8764;-68
2022/06/23 07:59:22;;;;;;;;;1.20;1.20;;;;;;;;4979087;28;9443;-67
2022/06/23 08:02:06;;;;;;;;;2.00;0.00;;;;;;;;4979428;28;8763;-68
2022/06/23 08:04:53;;;;;;;;;4.00;4.00;;;;;;;;4961631;28;8768;-67
2022/06/23 08:07:19;;;;;;;;;0.40;0.20;;;;;;;;4979655;28;8873;-67
2022/06/23 08:09:53;;;;;;;;;2.00;2.00;;;;;;;;4978960;28;8807;-68
2022/06/23 08:18:18;;;;;;;;;1.60;1.00;;;;;;;;4959178;28;8809;-68
2022/06/23 08:20:48;;;;;;;;;1.00;1.00;;;;;;;;4952658;28;8766;-68
2022/06/23 08:23:15;;;;;;;;;1.00;1.00;;;;;;;;4926571;28;8792;-68
2022/06/23 08:25:42;;;;;;;;;1.60;0.60;;;;;;;;4958971;28;9534;-67
2022/06/23 08:28:09;;;;;;;;;2.00;1.20;;;;;;;;4943091;28;8769;-68
2022/06/23 08:30:38;;;;;;;;;1.00;1.00;;;;;;;;4961619;28;8748;-68
2022/06/23 08:33:04;;;;;;;;;0.60;0.00;;;;;;;;4977433;28;8779;-68
2022/06/23 08:35:44;;;;;;;;;3.40;2.00;;;;;;;;4976843;28;8799;-67
2022/06/23 08:38:12;;;;;;;;;3.20;1.80;;;;;;;;4978250;28;8783;-68
2022/06/23 08:40:57;;;;;;;;;1.20;1.20;;;;;;;;4976945;28;8783;-67
2022/06/23 08:43:31;;;;;;;;;2.00;2.00;;;;;;;;4938799;29;8885;-68
2022/06/23 08:45:57;;;;;;;;;1.20;0.40;;;;;;;;4938283;28;9511;-68
2022/06/23 08:48:26;;;;;;;;;2.00;2.00;;;;;;;;4937558;29;9556;-67
2022/06/23 08:51:04;;;;;;;;;2.60;1.00;;;;;;;;4938488;28;8794;-68
2022/06/23 08:53:36;;;;;;;;;3.00;1.00;;;;;;;;4939866;29;8790;-68
2022/06/23 08:56:08;;;;;;;;;1.00;1.00;;;;;;;;4939696;28;8996;-68
2022/06/23 08:58:54;;;;;;;;;4.00;2.00;;;;;;;;4938315;29;9458;-68
2022/06/23 09:01:42;;;;;;;;;2.80;1.00;;;;;;;;4954679;28;8778;-67
2022/06/23 09:04:11;;;;;;;;;1.60;1.20;;;;;;;;4939978;29;8766;-68
2022/06/23 09:06:42;;;;;;;;;3.60;2.80;;;;;;;;4939006;29;8840;-68
2022/06/23 09:09:27;;;;;;;;;5.00;3.60;;;;;;;;4953868;28;8909;-68
2022/06/23 09:12:03;;;;;;;;;3.80;2.40;;;;;;;;4939653;29;8777;-68
2022/06/23 09:14:48;;;;;;;;;5.20;4.00;;;;;;;;4938995;28;8781;-67
2022/06/23 09:17:15;;;;;;;;;5.20;4.00;;;;;;;;4934925;29;8772;-67
2022/06/23 09:19:51;;;;;;;;;3.80;3.20;;;;;;;;4920241;29;8772;-67
2022/06/23 09:22:24;;;;;;;;;5.20;5.20;;;;;;;;4920816;29;8776;-67
2022/06/23 09:24:57;;;;;;;;;5.60;5.60;;;;;;;;4921154;28;8783;-67
2022/06/23 09:27:27;;;;;;;;;5.20;5.20;;;;;;;;4934767;29;8836;-67
2022/06/23 09:30:14;;;;;;;;;8.75;5.00;;;;;;;;4920598;29;8885;-67
2022/06/23 09:32:47;;;;;;;;;7.40;7.40;;;;;;;;4920340;29;8781;-67
2022/06/23 09:35:52;;;;;;;;;5.20;5.20;;;;;;;;4919443;29;9247;-67
2022/06/23 09:38:36;;;;;;;;;4.00;2.60;;;;;;;;4880623;29;8783;-66
2022/06/23 09:41:21;;;;;;;;;5.20;3.80;;;;;;;;4868352;29;8805;-67
2022/06/23 09:44:08;;;;;;;;;5.00;5.00;;;;;;;;4914473;29;8776;-67
2022/06/23 09:46:54;;;;;;;;;5.00;3.60;;;;;;;;4930469;29;8789;-67
2022/06/23 09:49:30;;;;;;;;;5.00;3.40;;;;;;;;4939882;29;8790;-67
2022/06/23 09:52:22;;;;;;;;;4.60;4.60;;;;;;;;4939977;29;8753;-67
2022/06/23 09:55:01;;;;;;;;;7.00;5.60;;;;;;;;4937491;28;8762;-67
2022/06/23 09:57:30;;;;;;;;;5.80;5.60;;;;;;;;4938793;29;8777;-67
2022/06/23 10:00:02;;;;;;;;;4.80;4.60;;;;;;;;4953821;28;9518;-67
2022/06/23 10:02:34;;;;;;;;;6.60;6.00;;;;;;;;4937584;29;8793;-67
2022/06/23 10:05:19;;;;;;;;;4.60;1.40;;;;;;;;4939016;28;8766;-68
2022/06/23 10:07:46;;;;;;;;;6.40;5.20;;;;;;;;4941854;29;9017;-67
2022/06/23 10:10:20;;;;;;;;;4.00;4.00;;;;;;;;4943814;29;8781;-67
2022/06/23 10:12:54;;;;;;;;;4.60;4.60;;;;;;;;4925286;29;8785;-67
2022/06/23 10:15:38;;;;;;;;;4.80;3.00;;;;;;;;4942533;29;8797;-67
2022/06/23 10:18:12;;;;;;;;;6.20;4.60;;;;;;;;4942770;28;9318;-67
2022/06/23 10:20:54;;;;;;;;;4.80;4.80;;;;;;;;4941388;29;8817;-67
2022/06/23 10:23:39;;;;;;;;;8.40;6.40;;;;;;;;4942838;28;9394;-67
2022/06/23 10:26:15;;;;;;;;;6.20;5.60;;;;;;;;4942786;29;8809;-68
2022/06/23 10:28:45;;;;;;;;;6.20;5.20;;;;;;;;4942672;28;8776;-67
2022/06/23 10:31:18;;;;;;;;;3.40;3.40;;;;;;;;4942206;29;8777;-67
2022/06/23 10:34:14;;;;;;;;;6.60;4.00;;;;;;;;4942620;28;8812;-67
2022/06/23 10:36:45;;;;;;;;;7.20;5.60;;;;;;;;4907229;29;8904;-67
2022/06/23 10:39:30;;;;;;;;;5.00;5.00;;;;;;;;4941282;29;9348;-67
2022/06/23 10:42:01;;;;;;;;;4.40;4.40;;;;;;;;4962920;28;8780;-67
2022/06/23 10:44:46;;;;;;;;;7.60;7.00;;;;;;;;4963624;28;8795;-67
2022/06/23 10:47:16;;;;;;;;;8.80;7.00;;;;;;;;4980569;28;8814;-68
2022/06/23 10:50:03;;;;;;;;;6.40;5.40;;;;;;;;4979716;28;8776;-67
2022/06/23 10:52:36;;;;;;;;;6.80;5.80;;;;;;;;4941705;28;8780;-67
2022/06/23 10:55:15;;;;;;;;;7.00;3.40;;;;;;;;4981506;28;8740;-68
2022/06/23 10:57:41;;;;;;;;;7.00;5.00;;;;;;;;4980384;28;9069;-67
2022/06/23 11:00:21;;;;;;;;;5.80;5.80;;;;;;;;4980417;28;8822;-68
2022/06/23 11:02:48;;;;;;;;;5.00;5.00;;;;;;;;4975946;28;8797;-67
2022/06/23 11:05:20;;;;;;;;;6.20;4.80;;;;;;;;4961184;28;8765;-67
2022/06/23 11:07:47;;;;;;;;;4.60;4.00;;;;;;;;4961214;28;8766;-67
2022/06/23 11:10:16;;;;;;;;;5.40;5.00;;;;;;;;4961961;28;8746;-67
2022/06/23 11:12:43;;;;;;;;;7.60;4.00;;;;;;;;4960490;28;8762;-67
2022/06/23 11:15:12;;;;;;;;;6.80;5.00;;;;;;;;4960919;28;8792;-67
2022/06/23 11:17:51;;;;;;;;;5.20;5.00;;;;;;;;4978023;28;9475;-68
2022/06/23 11:20:36;;;;;;;;;4.40;3.40;;;;;;;;4979572;28;8799;-67
2022/06/23 11:23:09;;;;;;;;;5.40;5.40;;;;;;;;4980270;28;8763;-68
2022/06/23 11:25:48;;;;;;;;;7.60;5.60;;;;;;;;4979822;28;8818;-67
2022/06/23 11:28:34;;;;;;;;;7.20;5.60;;;;;;;;4980988;28;8845;-67
2022/06/23 11:31:07;;;;;;;;;8.80;6.00;;;;;;;;4980515;28;9428;-67
2022/06/23 11:33:33;;;;;;;;;6.60;6.60;;;;;;;;4962639;28;8770;-68
2022/06/23 11:36:04;;;;;;;;;8.60;7.60;;;;;;;;4980249;28;8791;-68
2022/06/23 11:38:34;;;;;;;;;7.00;6.20;;;;;;;;4962593;28;8859;-68
2022/06/23 11:41:06;;;;;;;;;6.80;5.00;;;;;;;;4979796;28;8839;-68
2022/06/23 11:43:33;;;;;;;;;9.00;7.60;;;;;;;;4962426;28;8799;-69
2022/06/23 11:46:13;;;;;;;;;8.00;7.20;;;;;;;;4980173;28;8791;-68
2022/06/23 11:48:39;;;;;;;;;8.00;6.40;;;;;;;;4978443;28;8803;-69
2022/06/23 11:51:06;;;;;;;;;11.60;9.40;;;;;;;;4979636;28;8802;-68
2022/06/23 11:53:46;;;;;;;;;13.50;12.00;;;;;;;;4979460;28;8783;-68
2022/06/23 11:56:31;;;;;;;;;16.75;12.00;;;;;;;;4979371;28;8799;-68
2022/06/23 11:58:58;;;;;;;;;12.00;10.50;;;;;;;;4962165;28;8751;-68
2022/06/23 12:01:25;;;;;;;;;15.50;12.25;;;;;;;;4958371;28;8766;-61
2022/06/23 12:04:10;;;;;;;;;18.50;13.00;;;;;;;;4975505;28;8770;-68
2022/06/23 12:06:49;;;;;;;;;12.60;11.40;;;;;;;;4974795;28;8828;-68
2022/06/23 12:09:30;;;;;;;;;18.20;14.80;;;;;;;;4958908;28;8840;-68
2022/06/23 12:11:56;;;;;;;;;13.50;11.25;;;;;;;;4959880;28;9411;-68
2022/06/23 12:14:23;;;;;;;;;14.50;13.00;;;;;;;;4959836;28;8785;-68
2022/06/23 12:16:55;;;;;;;;;16.25;14.00;;;;;;;;4972413;28;8910;-68
2022/06/23 12:19:22;;;;;;;;;16.75;14.00;;;;;;;;4978283;28;8764;-67
2022/06/23 12:21:53;;;;;;;;;14.20;13.60;;;;;;;;4977793;28;8885;-68
2022/06/23 12:24:23;;;;;;;;;13.50;13.00;;;;;;;;4977811;28;8760;-67
2022/06/23 12:27:02;;;;;;;;;8.25;5.00;;;;;;;;4977827;28;8803;-68
2022/06/23 12:29:40;;;;;;;;;14.50;13.00;;;;;;;;4978276;28;8760;-68
2022/06/23 12:32:10;;;;;;;;;17.50;13.50;;;;;;;;4977583;28;8830;-68
2022/06/23 12:34:40;;;;;;;;;18.00;15.00;;;;;;;;4978709;28;8744;-68
2022/06/23 12:37:23;;;;;;;;;23.00;17.25;;;;;;;;4962337;28;8744;-68
2022/06/23 12:40:02;;;;;;;;;25.25;22.25;;;;;;;;4961750;28;9632;-68
2022/06/23 12:42:31;;;;;;;;;19.75;16.50;;;;;;;;4978279;28;8831;-67
2022/06/23 12:45:07;;;;;;;;;19.60;18.60;;;;;;;;4978837;28;8890;-68
2022/06/23 12:47:40;;;;;;;;;16.25;13.75;;;;;;;;4978359;28;8867;-67
2022/06/23 12:50:20;;;;;;;;;15.25;13.25;;;;;;;;4961367;28;8771;-68
2022/06/23 12:52:50;;;;;;;;;17.00;12.50;;;;;;;;4977739;28;8804;-67
2022/06/23 12:55:17;;;;;;;;;11.50;10.50;;;;;;;;4977848;28;8767;-68
2022/06/23 12:57:46;;;;;;;;;9.50;9.25;;;;;;;;4978533;28;8850;-67
2022/06/23 13:00:15;;;;;;;;;13.50;12.25;;;;;;;;4978447;28;8882;-68
2022/06/23 13:02:55;;;;;;;;;11.50;10.25;;;;;;;;4957950;28;8765;-67
2022/06/23 13:05:23;;;;;;;;;11.75;10.25;;;;;;;;4941798;28;8777;-67
2022/06/23 13:07:52;;;;;;;;;14.80;10.20;;;;;;;;4942034;28;8807;-67
2022/06/23 13:10:36;;;;;;;;;8.75;8.75;;;;;;;;4943099;28;8745;-66
2022/06/23 13:13:03;;;;;;;;;14.00;9.00;;;;;;;;4943601;28;8753;-67
2022/06/23 13:15:44;;;;;;;;;11.00;8.20;;;;;;;;4960809;28;8784;-67
2022/06/23 13:18:14;;;;;;;;;8.00;6.00;;;;;;;;4978298;28;8771;-68
2022/06/23 13:20:47;;;;;;;;;5.00;5.00;;;;;;;;4978004;28;8814;-68
2022/06/23 13:23:26;;;;;;;;;5.00;5.00;;;;;;;;4978562;28;8763;-68
2022/06/23 13:25:55;;;;;;;;;9.60;8.20;;;;;;;;4977171;28;8855;-68
2022/06/23 13:28:36;;;;;;;;;10.40;9.40;;;;;;;;4978806;28;8732;-67
2022/06/23 13:31:23;;;;;;;;;11.00;10.00;;;;;;;;4958234;28;8762;-68
2022/06/23 13:33:49;;;;;;;;;10.60;9.80;;;;;;;;4959322;28;8762;-67
2022/06/23 13:36:36;;;;;;;;;13.40;10.80;;;;;;;;4973818;28;8726;-68
2022/06/23 13:39:06;;;;;;;;;8.50;7.75;;;;;;;;4959016;28;8883;-68
2022/06/23 13:41:38;;;;;;;;;12.25;10.75;;;;;;;;4958690;28;8793;-68
2022/06/23 13:44:05;;;;;;;;;12.20;9.00;;;;;;;;4961418;28;8766;-68
2022/06/23 13:46:46;;;;;;;;;13.75;12.00;;;;;;;;4970949;28;8776;-67
2022/06/23 13:49:34;;;;;;;;;10.20;10.20;;;;;;;;4981245;28;9567;-68
2022/06/23 13:52:22;;;;;;;;;11.00;11.00;;;;;;;;4980393;28;8780;-68
2022/06/23 13:55:04;;;;;;;;;6.50;6.25;;;;;;;;4980537;28;8806;-68
2022/06/23 13:57:32;;;;;;;;;11.60;11.00;;;;;;;;4978936;28;8802;-68
2022/06/23 14:00:01;;;;;;;;;13.75;10.75;;;;;;;;4979150;28;8771;-68
2022/06/23 14:02:42;;;;;;;;;12.00;12.00;;;;;;;;4979025;28;8783;-67
2022/06/23 14:05:09;;;;;;;;;12.00;10.75;;;;;;;;4979998;28;8787;-68
2022/06/23 14:07:41;;;;;;;;;10.50;8.25;;;;;;;;4979706;28;8803;-68
2022/06/23 14:10:26;;;;;;;;;7.20;7.00;;;;;;;;4964149;28;9463;-68
2022/06/23 14:12:59;;;;;;;;;5.00;5.00;;;;;;;;4963919;28;8755;-68
2022/06/23 14:15:34;;;;;;;;;6.00;5.40;;;;;;;;4979868;28;8835;-68
2022/06/23 14:18:05;;;;;;;;;7.40;5.00;;;;;;;;4979065;28;8771;-68
2022/06/23 14:20:37;;;;;;;;;4.60;4.20;;;;;;;;4979989;28;8779;-67
2022/06/23 14:23:13;;;;;;;;;8.40;3.80;;;;;;;;4962645;28;8776;-68
2022/06/23 14:25:41;;;;;;;;;5.80;4.20;;;;;;;;4979670;28;8740;-68
2022/06/23 14:28:30;;;;;;;;;3.00;3.00;;;;;;;;4979502;28;8958;-68
2022/06/23 14:31:20;;;;;;;;;4.60;4.00;;;;;;;;4959635;28;8945;-68
2022/06/23 14:33:48;;;;;;;;;5.40;3.40;;;;;;;;4942175;28;8790;-68
2022/06/23 14:36:17;;;;;;;;;6.00;4.00;;;;;;;;4959358;28;8904;-67
2022/06/23 14:39:03;;;;;;;;;9.60;5.40;;;;;;;;4975300;28;8784;-68
2022/06/23 14:41:39;;;;;;;;;10.60;6.60;;;;;;;;4884053;28;2228366;-67
2022/06/23 14:44:24;;;;;;;;;11.60;7.80;;;;;;;;4961575;28;8886;-68
2022/06/23 14:46:56;;;;;;;;;20.25;16.25;;;;;;;;4973950;28;8798;-67
2022/06/23 14:49:26;;;;;;;;;14.75;9.75;;;;;;;;4981185;28;8806;-67
2022/06/23 14:51:55;;;;;;;;;11.40;9.80;;;;;;;;4981170;28;8760;-68
2022/06/23 14:54:24;;;;;;;;;9.60;8.00;;;;;;;;4978951;28;8799;-67
2022/06/23 14:56:56;;;;;;;;;9.20;8.00;;;;;;;;4979407;28;8845;-67
2022/06/23 14:59:26;;;;;;;;;9.80;8.00;;;;;;;;4979025;28;9520;-67
2022/06/23 15:01:55;;;;;;;;;8.80;7.40;;;;;;;;4979127;28;8759;-68
2022/06/23 15:04:28;;;;;;;;;9.80;8.80;;;;;;;;4963839;28;8789;-67
2022/06/23 15:07:04;;;;;;;;;14.40;10.00;;;;;;;;4963967;28;8764;-67
2022/06/23 15:09:31;;;;;;;;;15.50;14.00;;;;;;;;4963048;28;8778;-67
2022/06/23 15:12:01;;;;;;;;;26.50;20.50;;;;;;;;4980278;28;8763;-67
2022/06/23 15:14:39;;;;;;;;;23.00;20.00;;;;;;;;4963228;28;8787;-67
2022/06/23 15:17:12;;;;;;;;;20.75;16.25;;;;;;;;4963076;28;8859;-67
2022/06/23 15:19:52;;;;;;;;;15.75;15.00;;;;;;;;4979946;28;8793;-67
2022/06/23 15:25:17;;;;;;;;;17.25;14.25;;;;;;;;4980543;28;8752;-68
2022/06/23 15:27:46;;;;;;;;;20.75;14.25;;;;;;;;4979934;28;9471;-68
2022/06/23 15:30:15;;;;;;;;;14.00;10.75;;;;;;;;4978752;28;8775;-67
2022/06/23 15:32:41;;;;;;;;;12.00;11.00;;;;;;;;4975270;28;8778;-67
2022/06/23 15:35:22;;;;;;;;;12.60;10.80;;;;;;;;4975350;28;8797;-67
2022/06/23 15:37:57;;;;;;;;;9.80;9.20;;;;;;;;4959325;28;8802;-68
2022/06/23 15:40:39;;;;;;;;;11.40;10.00;;;;;;;;4944108;28;8799;-67